sensor_id;sensor_type;location;lat;lon;timestamp;temperature;humidity
56184;DHT22;42086;53.170;6.980;2022-12-07T00:01:11;4.00;99.90
56184;DHT22;42086;53.170;6.980;2022-12-07T00:03:38;4.10;99.90
56184;DHT22;42086;53.170;6.980;2022-12-07T00:06:06;4.10;99.90
56184;DHT22;42086;53.170;6.980;2022-12-07T00:08:33;4.20;99.90
56184;DHT22;42086;53.170;6.980;2022-12-07T00:11:08;4.20;99.90
56184;DHT22;42086;53.170;6.980;2022-12-07T00:13:35;4.30;99.90
56184;DHT22;42086;53.170;6.980;2022-12-07T00:16:12;4.40;99.90
56184;DHT22;42086;53.170;6.980;2022-12-07T00:18:38;4.50;99.90
56184;DHT22;42086;53.170;6.980;2022-12-07T00:21:08;4.60;99.90
56184;DHT22;42086;53.170;6.980;2022-12-07T00:23:34;4.60;99.90
56184;DHT22;42086;53.170;6.980;2022-12-07T00:26:08;4.60;99.90
56184;DHT22;42086;53.170;6.980;2022-12-07T00:28:34;4.60;99.90
56184;DHT22;42086;53.170;6.980;2022-12-07T00:31:02;4.50;99.90
56184;DHT22;42086;53.170;6.980;2022-12-07T00:33:28;4.50;99.90
56184;DHT22;42086;53.170;6.980;2022-12-07T00:35:58;4.50;99.90
56184;DHT22;42086;53.170;6.980;2022-12-07T00:38:24;4.40;99.90
56184;DHT22;42086;53.170;6.980;2022-12-07T00:40:58;4.70;99.90
56184;DHT22;42086;53.170;6.980;2022-12-07T00:43:25;4.50;99.90
56184;DHT22;42086;53.170;6.980;2022-12-07T00:45:51;3.60;99.90
56184;DHT22;42086;53.170;6.980;2022-12-07T00:48:17;4.40;99.90
56184;DHT22;42086;53.170;6.980;2022-12-07T00:50:43;4.50;99.90
56184;DHT22;42086;53.170;6.980;2022-12-07T00:53:09;4.60;99.90
56184;DHT22;42086;53.170;6.980;2022-12-07T00:55:36;5.30;99.90
56184;DHT22;42086;53.170;6.980;2022-12-07T00:58:02;4.60;99.90
56184;DHT22;42086;53.170;6.980;2022-12-07T01:00:28;4.70;99.90
56184;DHT22;42086;53.170;6.980;2022-12-07T01:02:54;4.80;99.90
56184;DHT22;42086;53.170;6.980;2022-12-07T01:05:20;4.80;99.90
56184;DHT22;42086;53.170;6.980;2022-12-07T01:07:47;4.90;99.90
56184;DHT22;42086;53.170;6.980;2022-12-07T01:10:14;4.90;99.90
56184;DHT22;42086;53.170;6.980;2022-12-07T01:12:40;4.90;99.90
56184;DHT22;42086;53.170;6.980;2022-12-07T01:15:07;4.90;99.90
56184;DHT22;42086;53.170;6.980;2022-12-07T01:17:33;4.90;99.90
56184;DHT22;42086;53.170;6.980;2022-12-07T01:20:00;4.90;99.90
56184;DHT22;42086;53.170;6.980;2022-12-07T01:22:26;4.90;99.90
56184;DHT22;42086;53.170;6.980;2022-12-07T01:24:52;4.90;99.90
56184;DHT22;42086;53.170;6.980;2022-12-07T01:27:18;4.90;99.90
56184;DHT22;42086;53.170;6.980;2022-12-07T01:29:44;5.00;99.90
56184;DHT22;42086;53.170;6.980;2022-12-07T01:32:10;5.00;99.90
56184;DHT22;42086;53.170;6.980;2022-12-07T01:34:36;5.00;99.90
56184;DHT22;42086;53.170;6.980;2022-12-07T01:37:02;5.10;99.90
56184;DHT22;42086;53.170;6.980;2022-12-07T01:39:28;5.10;99.90
56184;DHT22;42086;53.170;6.980;2022-12-07T01:41:54;5.20;99.90
56184;DHT22;42086;53.170;6.980;2022-12-07T01:46:57;5.20;99.90
56184;DHT22;42086;53.170;6.980;2022-12-07T01:49:40;5.20;99.90
56184;DHT22;42086;53.170;6.980;2022-12-07T01:52:23;5.20;99.90
56184;DHT22;42086;53.170;6.980;2022-12-07T01:54:50;5.80;99.90
56184;DHT22;42086;53.170;6.980;2022-12-07T01:57:17;6.10;99.90
56184;DHT22;42086;53.170;6.980;2022-12-07T01:59:45;5.30;99.90
56184;DHT22;42086;53.170;6.980;2022-12-07T02:02:22;5.20;99.90
56184;DHT22;42086;53.170;6.980;2022-12-07T02:04:50;5.20;99.90
56184;DHT22;42086;53.170;6.980;2022-12-07T02:07:16;4.30;99.90
56184;DHT22;42086;53.170;6.980;2022-12-07T02:09:42;5.30;99.90
56184;DHT22;42086;53.170;6.980;2022-12-07T02:12:08;5.30;99.90
56184;DHT22;42086;53.170;6.980;2022-12-07T02:14:34;5.30;99.90
56184;DHT22;42086;53.170;6.980;2022-12-07T02:17:31;5.30;99.90
56184;DHT22;42086;53.170;6.980;2022-12-07T02:23:23;5.20;99.90
56184;DHT22;42086;53.170;6.980;2022-12-07T02:25:58;5.10;99.90
56184;DHT22;42086;53.170;6.980;2022-12-07T02:28:51;5.00;99.90
56184;DHT22;42086;53.170;6.980;2022-12-07T02:31:20;4.90;99.90
56184;DHT22;42086;53.170;6.980;2022-12-07T02:33:54;4.80;99.90
56184;DHT22;42086;53.170;6.980;2022-12-07T02:36:28;4.70;99.90
56184;DHT22;42086;53.170;6.980;2022-12-07T02:39:03;4.60;99.90
56184;DHT22;42086;53.170;6.980;2022-12-07T02:41:52;4.50;99.90
56184;DHT22;42086;53.170;6.980;2022-12-07T02:44:24;4.40;99.90
56184;DHT22;42086;53.170;6.980;2022-12-07T02:46:54;4.30;99.90
56184;DHT22;42086;53.170;6.980;2022-12-07T02:49:24;4.30;99.90
56184;DHT22;42086;53.170;6.980;2022-12-07T02:51:52;4.20;99.90
56184;DHT22;42086;53.170;6.980;2022-12-07T02:54:20;4.10;99.90
56184;DHT22;42086;53.170;6.980;2022-12-07T02:56:54;4.10;99.90
56184;DHT22;42086;53.170;6.980;2022-12-07T03:00:13;4.10;99.90
56184;DHT22;42086;53.170;6.980;2022-12-07T03:08:00;4.20;99.90
56184;DHT22;42086;53.170;6.980;2022-12-07T03:18:56;4.40;99.90
56184;DHT22;42086;53.170;6.980;2022-12-07T03:21:27;4.40;99.90
56184;DHT22;42086;53.170;6.980;2022-12-07T03:23:59;4.40;99.90
56184;DHT22;42086;53.170;6.980;2022-12-07T03:26:31;4.40;99.90
56184;DHT22;42086;53.170;6.980;2022-12-07T03:29:01;4.50;99.90
56184;DHT22;42086;53.170;6.980;2022-12-07T03:31:33;4.60;99.90
56184;DHT22;42086;53.170;6.980;2022-12-07T03:34:21;5.20;99.90
56184;DHT22;42086;53.170;6.980;2022-12-07T03:37:04;4.60;99.90
56184;DHT22;42086;53.170;6.980;2022-12-07T03:39:48;4.60;99.90
56184;DHT22;42086;53.170;6.980;2022-12-07T03:42:15;4.50;99.90
56184;DHT22;42086;53.170;6.980;2022-12-07T03:44:42;4.50;99.90
56184;DHT22;42086;53.170;6.980;2022-12-07T03:49:58;4.50;99.90
56184;DHT22;42086;53.170;6.980;2022-12-07T03:52:51;4.40;99.90
56184;DHT22;42086;53.170;6.980;2022-12-07T03:55:26;4.40;99.90
56184;DHT22;42086;53.170;6.980;2022-12-07T03:57:58;4.60;99.90
56184;DHT22;42086;53.170;6.980;2022-12-07T04:00:25;4.40;99.90
56184;DHT22;42086;53.170;6.980;2022-12-07T04:02:52;4.40;99.90
56184;DHT22;42086;53.170;6.980;2022-12-07T04:05:19;4.40;99.90
56184;DHT22;42086;53.170;6.980;2022-12-07T04:07:45;4.50;99.90
56184;DHT22;42086;53.170;6.980;2022-12-07T04:10:11;4.50;99.90
56184;DHT22;42086;53.170;6.980;2022-12-07T04:12:37;4.50;99.90
56184;DHT22;42086;53.170;6.980;2022-12-07T04:15:04;4.50;99.90
56184;DHT22;42086;53.170;6.980;2022-12-07T04:17:30;4.50;99.90
56184;DHT22;42086;53.170;6.980;2022-12-07T04:19:56;4.40;99.90
56184;DHT22;42086;53.170;6.980;2022-12-07T04:22:22;4.40;99.90
56184;DHT22;42086;53.170;6.980;2022-12-07T04:24:48;5.10;99.90
56184;DHT22;42086;53.170;6.980;2022-12-07T04:27:14;4.20;99.90
56184;DHT22;42086;53.170;6.980;2022-12-07T04:29:39;4.10;99.90
56184;DHT22;42086;53.170;6.980;2022-12-07T04:32:05;4.10;99.90
56184;DHT22;42086;53.170;6.980;2022-12-07T04:34:31;4.00;99.90
56184;DHT22;42086;53.170;6.980;2022-12-07T04:36:57;4.00;99.90
56184;DHT22;42086;53.170;6.980;2022-12-07T04:39:28;3.90;99.90
56184;DHT22;42086;53.170;6.980;2022-12-07T04:41:55;3.90;99.90
56184;DHT22;42086;53.170;6.980;2022-12-07T04:44:24;4.00;99.90
56184;DHT22;42086;53.170;6.980;2022-12-07T04:46:51;4.00;99.90
56184;DHT22;42086;53.170;6.980;2022-12-07T04:49:17;4.60;99.90
56184;DHT22;42086;53.170;6.980;2022-12-07T04:51:45;4.10;99.90
56184;DHT22;42086;53.170;6.980;2022-12-07T04:54:11;4.20;99.90
56184;DHT22;42086;53.170;6.980;2022-12-07T04:56:38;4.20;99.90
56184;DHT22;42086;53.170;6.980;2022-12-07T04:59:04;4.30;99.90
56184;DHT22;42086;53.170;6.980;2022-12-07T05:01:30;4.30;99.90
56184;DHT22;42086;53.170;6.980;2022-12-07T05:03:57;4.30;99.90
56184;DHT22;42086;53.170;6.980;2022-12-07T05:06:23;4.40;99.90
56184;DHT22;42086;53.170;6.980;2022-12-07T05:08:49;4.40;99.90
56184;DHT22;42086;53.170;6.980;2022-12-07T05:11:16;4.40;99.90
56184;DHT22;42086;53.170;6.980;2022-12-07T05:14:01;4.40;99.90
56184;DHT22;42086;53.170;6.980;2022-12-07T05:16:27;4.40;99.90
56184;DHT22;42086;53.170;6.980;2022-12-07T05:18:53;4.40;99.90
56184;DHT22;42086;53.170;6.980;2022-12-07T05:21:19;4.80;99.90
56184;DHT22;42086;53.170;6.980;2022-12-07T05:23:45;4.30;99.90
56184;DHT22;42086;53.170;6.980;2022-12-07T05:26:11;4.30;99.90
56184;DHT22;42086;53.170;6.980;2022-12-07T05:28:37;4.10;99.90
56184;DHT22;42086;53.170;6.980;2022-12-07T05:31:03;4.10;99.90
56184;DHT22;42086;53.170;6.980;2022-12-07T05:33:29;3.90;99.90
56184;DHT22;42086;53.170;6.980;2022-12-07T05:35:55;3.90;99.90
56184;DHT22;42086;53.170;6.980;2022-12-07T05:38:21;3.80;99.90
56184;DHT22;42086;53.170;6.980;2022-12-07T05:40:47;3.80;99.90
56184;DHT22;42086;53.170;6.980;2022-12-07T05:43:13;3.70;99.90
56184;DHT22;42086;53.170;6.980;2022-12-07T05:45:42;3.70;99.90
56184;DHT22;42086;53.170;6.980;2022-12-07T05:48:09;3.60;99.90
56184;DHT22;42086;53.170;6.980;2022-12-07T05:50:35;3.60;99.90
56184;DHT22;42086;53.170;6.980;2022-12-07T05:53:01;3.60;99.90
56184;DHT22;42086;53.170;6.980;2022-12-07T05:55:27;3.60;99.90
56184;DHT22;42086;53.170;6.980;2022-12-07T05:57:53;3.60;99.90
56184;DHT22;42086;53.170;6.980;2022-12-07T06:00:37;3.60;99.90
56184;DHT22;42086;53.170;6.980;2022-12-07T06:03:03;3.70;99.90
56184;DHT22;42086;53.170;6.980;2022-12-07T06:05:29;3.70;99.90
56184;DHT22;42086;53.170;6.980;2022-12-07T06:07:55;3.80;99.90
56184;DHT22;42086;53.170;6.980;2022-12-07T06:10:21;3.90;99.90
56184;DHT22;42086;53.170;6.980;2022-12-07T06:12:47;4.00;99.90
56184;DHT22;42086;53.170;6.980;2022-12-07T06:15:13;4.70;99.90
56184;DHT22;42086;53.170;6.980;2022-12-07T06:17:39;4.00;99.90
56184;DHT22;42086;53.170;6.980;2022-12-07T06:20:06;4.10;99.90
56184;DHT22;42086;53.170;6.980;2022-12-07T06:22:32;4.10;99.90
56184;DHT22;42086;53.170;6.980;2022-12-07T06:24:57;4.10;99.90
56184;DHT22;42086;53.170;6.980;2022-12-07T06:27:23;4.00;99.90
56184;DHT22;42086;53.170;6.980;2022-12-07T06:29:49;4.00;99.90
56184;DHT22;42086;53.170;6.980;2022-12-07T06:32:15;3.90;99.90
56184;DHT22;42086;53.170;6.980;2022-12-07T06:34:41;3.90;99.90
56184;DHT22;42086;53.170;6.980;2022-12-07T06:37:07;3.90;99.90
56184;DHT22;42086;53.170;6.980;2022-12-07T06:39:33;4.00;99.90
56184;DHT22;42086;53.170;6.980;2022-12-07T06:41:59;4.00;99.90
56184;DHT22;42086;53.170;6.980;2022-12-07T06:44:25;4.10;99.90
56184;DHT22;42086;53.170;6.980;2022-12-07T06:46:52;4.10;99.90
56184;DHT22;42086;53.170;6.980;2022-12-07T06:49:18;4.10;99.90
56184;DHT22;42086;53.170;6.980;2022-12-07T06:51:44;4.10;99.90
56184;DHT22;42086;53.170;6.980;2022-12-07T06:54:11;4.00;99.90
56184;DHT22;42086;53.170;6.980;2022-12-07T06:56:37;3.90;99.90
56184;DHT22;42086;53.170;6.980;2022-12-07T06:59:04;3.90;99.90
56184;DHT22;42086;53.170;6.980;2022-12-07T07:01:32;3.90;99.90
56184;DHT22;42086;53.170;6.980;2022-12-07T07:04:00;3.80;99.90
56184;DHT22;42086;53.170;6.980;2022-12-07T07:06:26;3.70;99.90
56184;DHT22;42086;53.170;6.980;2022-12-07T07:08:52;3.70;99.90
56184;DHT22;42086;53.170;6.980;2022-12-07T07:11:18;3.60;99.90
56184;DHT22;42086;53.170;6.980;2022-12-07T07:13:44;3.50;99.90
56184;DHT22;42086;53.170;6.980;2022-12-07T07:16:11;3.50;99.90
56184;DHT22;42086;53.170;6.980;2022-12-07T07:18:36;3.80;99.90
56184;DHT22;42086;53.170;6.980;2022-12-07T07:21:03;3.30;99.90
56184;DHT22;42086;53.170;6.980;2022-12-07T07:23:29;3.30;99.90
56184;DHT22;42086;53.170;6.980;2022-12-07T07:25:55;3.20;99.90
56184;DHT22;42086;53.170;6.980;2022-12-07T07:28:21;3.20;99.90
56184;DHT22;42086;53.170;6.980;2022-12-07T07:30:47;3.20;99.90
56184;DHT22;42086;53.170;6.980;2022-12-07T07:33:13;3.20;99.90
56184;DHT22;42086;53.170;6.980;2022-12-07T07:35:39;3.20;99.90
56184;DHT22;42086;53.170;6.980;2022-12-07T07:38:05;3.20;99.90
56184;DHT22;42086;53.170;6.980;2022-12-07T07:40:31;3.30;99.90
56184;DHT22;42086;53.170;6.980;2022-12-07T07:42:58;3.40;99.90
56184;DHT22;42086;53.170;6.980;2022-12-07T07:45:25;3.00;99.90
56184;DHT22;42086;53.170;6.980;2022-12-07T07:47:51;3.50;99.90
56184;DHT22;42086;53.170;6.980;2022-12-07T07:50:18;3.60;99.90
56184;DHT22;42086;53.170;6.980;2022-12-07T07:52:44;3.60;99.90
56184;DHT22;42086;53.170;6.980;2022-12-07T07:55:11;3.70;99.90
56184;DHT22;42086;53.170;6.980;2022-12-07T07:57:38;3.70;99.90
56184;DHT22;42086;53.170;6.980;2022-12-07T08:00:09;3.80;99.90
56184;DHT22;42086;53.170;6.980;2022-12-07T08:02:35;3.90;99.90
56184;DHT22;42086;53.170;6.980;2022-12-07T08:05:02;3.20;99.90
56184;DHT22;42086;53.170;6.980;2022-12-07T08:07:28;4.00;99.90
56184;DHT22;42086;53.170;6.980;2022-12-07T08:09:54;4.00;99.90
56184;DHT22;42086;53.170;6.980;2022-12-07T08:12:20;4.10;99.90
56184;DHT22;42086;53.170;6.980;2022-12-07T08:14:46;4.10;99.90
56184;DHT22;42086;53.170;6.980;2022-12-07T08:17:12;4.20;99.90
56184;DHT22;42086;53.170;6.980;2022-12-07T08:19:38;4.30;99.90
56184;DHT22;42086;53.170;6.980;2022-12-07T08:22:04;4.40;99.90
56184;DHT22;42086;53.170;6.980;2022-12-07T08:24:33;4.40;99.90
56184;DHT22;42086;53.170;6.980;2022-12-07T08:26:59;4.40;99.90
56184;DHT22;42086;53.170;6.980;2022-12-07T08:29:25;4.40;99.90
56184;DHT22;42086;53.170;6.980;2022-12-07T08:31:51;4.50;99.90
56184;DHT22;42086;53.170;6.980;2022-12-07T08:34:17;4.60;99.90
56184;DHT22;42086;53.170;6.980;2022-12-07T08:36:43;4.50;99.90
56184;DHT22;42086;53.170;6.980;2022-12-07T08:39:09;4.50;99.90
56184;DHT22;42086;53.170;6.980;2022-12-07T08:41:35;4.50;99.90
56184;DHT22;42086;53.170;6.980;2022-12-07T08:44:01;4.60;99.90
56184;DHT22;42086;53.170;6.980;2022-12-07T08:46:35;4.60;99.90
56184;DHT22;42086;53.170;6.980;2022-12-07T08:49:10;4.70;99.90
56184;DHT22;42086;53.170;6.980;2022-12-07T08:51:37;4.80;99.90
56184;DHT22;42086;53.170;6.980;2022-12-07T08:54:06;4.90;99.90
56184;DHT22;42086;53.170;6.980;2022-12-07T08:56:34;4.90;99.90
56184;DHT22;42086;53.170;6.980;2022-12-07T08:59:00;4.90;99.90
56184;DHT22;42086;53.170;6.980;2022-12-07T09:01:26;5.00;99.90
56184;DHT22;42086;53.170;6.980;2022-12-07T09:03:52;5.00;99.90
56184;DHT22;42086;53.170;6.980;2022-12-07T09:06:18;5.00;99.90
56184;DHT22;42086;53.170;6.980;2022-12-07T09:08:47;5.00;99.90
56184;DHT22;42086;53.170;6.980;2022-12-07T09:11:15;5.00;99.90
56184;DHT22;42086;53.170;6.980;2022-12-07T09:13:41;4.90;99.90
56184;DHT22;42086;53.170;6.980;2022-12-07T09:16:07;4.90;99.90
56184;DHT22;42086;53.170;6.980;2022-12-07T09:18:33;4.90;99.90
56184;DHT22;42086;53.170;6.980;2022-12-07T09:20:59;4.90;99.90
56184;DHT22;42086;53.170;6.980;2022-12-07T09:23:25;5.00;99.90
56184;DHT22;42086;53.170;6.980;2022-12-07T09:25:50;5.20;99.90
56184;DHT22;42086;53.170;6.980;2022-12-07T09:28:16;5.40;99.90
56184;DHT22;42086;53.170;6.980;2022-12-07T09:30:49;5.50;99.90
56184;DHT22;42086;53.170;6.980;2022-12-07T09:33:15;5.60;99.90
56184;DHT22;42086;53.170;6.980;2022-12-07T09:35:45;5.80;99.90
56184;DHT22;42086;53.170;6.980;2022-12-07T09:38:12;5.90;99.90
56184;DHT22;42086;53.170;6.980;2022-12-07T09:40:38;5.90;99.90
56184;DHT22;42086;53.170;6.980;2022-12-07T09:43:05;5.40;99.90
56184;DHT22;42086;53.170;6.980;2022-12-07T09:45:35;6.20;99.90
56184;DHT22;42086;53.170;6.980;2022-12-07T09:48:05;6.30;99.90
56184;DHT22;42086;53.170;6.980;2022-12-07T09:50:34;6.40;99.90
56184;DHT22;42086;53.170;6.980;2022-12-07T09:53:09;6.40;99.90
56184;DHT22;42086;53.170;6.980;2022-12-07T09:55:38;6.40;99.90
56184;DHT22;42086;53.170;6.980;2022-12-07T09:58:06;6.50;99.90
56184;DHT22;42086;53.170;6.980;2022-12-07T10:00:32;6.60;99.90
56184;DHT22;42086;53.170;6.980;2022-12-07T10:03:00;6.70;99.90
56184;DHT22;42086;53.170;6.980;2022-12-07T10:07:52;6.80;99.90
56184;DHT22;42086;53.170;6.980;2022-12-07T10:10:26;6.70;99.90
56184;DHT22;42086;53.170;6.980;2022-12-07T10:13:04;6.70;99.90
56184;DHT22;42086;53.170;6.980;2022-12-07T10:16:02;6.60;99.90
56184;DHT22;42086;53.170;6.980;2022-12-07T10:18:40;6.70;99.90
56184;DHT22;42086;53.170;6.980;2022-12-07T10:21:21;6.70;99.90
56184;DHT22;42086;53.170;6.980;2022-12-07T10:24:00;6.80;99.90
56184;DHT22;42086;53.170;6.980;2022-12-07T10:26:38;6.80;99.90
56184;DHT22;42086;53.170;6.980;2022-12-07T10:32:01;6.90;99.90
56184;DHT22;42086;53.170;6.980;2022-12-07T10:34:31;7.00;99.90
56184;DHT22;42086;53.170;6.980;2022-12-07T10:44:46;7.20;99.90
56184;DHT22;42086;53.170;6.980;2022-12-07T10:47:38;7.20;99.90
56184;DHT22;42086;53.170;6.980;2022-12-07T10:50:14;7.20;99.90
56184;DHT22;42086;53.170;6.980;2022-12-07T10:55:41;7.10;99.90
56184;DHT22;42086;53.170;6.980;2022-12-07T11:00:52;7.10;99.90
56184;DHT22;42086;53.170;6.980;2022-12-07T11:06:17;7.00;99.90
56184;DHT22;42086;53.170;6.980;2022-12-07T11:12:15;6.80;99.90
56184;DHT22;42086;53.170;6.980;2022-12-07T11:17:44;7.40;99.90
56184;DHT22;42086;53.170;6.980;2022-12-07T11:20:34;7.50;99.90
56184;DHT22;42086;53.170;6.980;2022-12-07T11:26:30;8.00;99.90
56184;DHT22;42086;53.170;6.980;2022-12-07T11:29:15;8.40;99.90
56184;DHT22;42086;53.170;6.980;2022-12-07T11:37:37;8.50;99.90
56184;DHT22;42086;53.170;6.980;2022-12-07T11:40:13;8.60;99.90
56184;DHT22;42086;53.170;6.980;2022-12-07T11:42:46;8.90;99.90
56184;DHT22;42086;53.170;6.980;2022-12-07T11:45:27;9.00;99.90
56184;DHT22;42086;53.170;6.980;2022-12-07T11:48:03;9.00;99.90
56184;DHT22;42086;53.170;6.980;2022-12-07T11:50:45;9.30;99.90
56184;DHT22;42086;53.170;6.980;2022-12-07T11:53:20;9.50;99.90
56184;DHT22;42086;53.170;6.980;2022-12-07T12:03:52;8.60;99.90
56184;DHT22;42086;53.170;6.980;2022-12-07T12:06:20;8.30;99.90
56184;DHT22;42086;53.170;6.980;2022-12-07T12:09:15;8.20;99.90
56184;DHT22;42086;53.170;6.980;2022-12-07T12:20:51;7.30;99.90
56184;DHT22;42086;53.170;6.980;2022-12-07T12:26:28;7.00;99.90
56184;DHT22;42086;53.170;6.980;2022-12-07T12:29:01;7.00;99.90
56184;DHT22;42086;53.170;6.980;2022-12-07T12:31:31;6.90;99.90
56184;DHT22;42086;53.170;6.980;2022-12-07T12:34:00;6.80;99.90
56184;DHT22;42086;53.170;6.980;2022-12-07T12:46:55;6.30;99.90
56184;DHT22;42086;53.170;6.980;2022-12-07T12:51:56;6.60;99.90
56184;DHT22;42086;53.170;6.980;2022-12-07T12:54:31;7.30;99.90
56184;DHT22;42086;53.170;6.980;2022-12-07T12:57:33;7.90;99.90
56184;DHT22;42086;53.170;6.980;2022-12-07T13:00:03;8.00;99.90
56184;DHT22;42086;53.170;6.980;2022-12-07T13:02:52;7.70;99.90
56184;DHT22;42086;53.170;6.980;2022-12-07T13:05:24;7.50;99.90
56184;DHT22;42086;53.170;6.980;2022-12-07T13:07:54;7.30;99.90
56184;DHT22;42086;53.170;6.980;2022-12-07T13:13:25;6.90;99.90
56184;DHT22;42086;53.170;6.980;2022-12-07T13:18:37;6.60;99.90
56184;DHT22;42086;53.170;6.980;2022-12-07T13:26:16;6.50;99.90
56184;DHT22;42086;53.170;6.980;2022-12-07T13:29:01;6.50;99.90
56184;DHT22;42086;53.170;6.980;2022-12-07T13:34:40;6.30;99.90
56184;DHT22;42086;53.170;6.980;2022-12-07T13:37:42;6.30;99.90
56184;DHT22;42086;53.170;6.980;2022-12-07T13:40:20;6.20;99.90
56184;DHT22;42086;53.170;6.980;2022-12-07T13:42:47;6.10;99.90
56184;DHT22;42086;53.170;6.980;2022-12-07T13:45:33;6.20;99.90
56184;DHT22;42086;53.170;6.980;2022-12-07T13:48:31;6.20;99.90
56184;DHT22;42086;53.170;6.980;2022-12-07T13:51:01;6.20;99.90
56184;DHT22;42086;53.170;6.980;2022-12-07T13:53:28;6.30;99.90
56184;DHT22;42086;53.170;6.980;2022-12-07T13:56:00;6.30;99.90
56184;DHT22;42086;53.170;6.980;2022-12-07T13:58:30;6.30;99.90
56184;DHT22;42086;53.170;6.980;2022-12-07T14:00:57;6.30;99.90
56184;DHT22;42086;53.170;6.980;2022-12-07T14:03:29;6.30;99.90
56184;DHT22;42086;53.170;6.980;2022-12-07T14:08:41;6.20;99.90
56184;DHT22;42086;53.170;6.980;2022-12-07T14:11:14;6.10;99.90
56184;DHT22;42086;53.170;6.980;2022-12-07T14:14:01;6.00;99.90
56184;DHT22;42086;53.170;6.980;2022-12-07T14:16:36;5.90;99.90
56184;DHT22;42086;53.170;6.980;2022-12-07T14:19:05;5.80;99.90
56184;DHT22;42086;53.170;6.980;2022-12-07T14:21:34;5.70;99.90
56184;DHT22;42086;53.170;6.980;2022-12-07T14:24:15;5.70;99.90
56184;DHT22;42086;53.170;6.980;2022-12-07T14:26:41;5.60;99.90
56184;DHT22;42086;53.170;6.980;2022-12-07T14:29:31;5.60;99.90
56184;DHT22;42086;53.170;6.980;2022-12-07T14:32:04;5.40;99.90
56184;DHT22;42086;53.170;6.980;2022-12-07T14:34:38;5.30;99.90
56184;DHT22;42086;53.170;6.980;2022-12-07T14:37:06;5.20;99.90
56184;DHT22;42086;53.170;6.980;2022-12-07T14:39:33;5.10;99.90
56184;DHT22;42086;53.170;6.980;2022-12-07T14:41:59;5.00;99.90
56184;DHT22;42086;53.170;6.980;2022-12-07T14:44:25;4.90;99.90
56184;DHT22;42086;53.170;6.980;2022-12-07T14:46:51;4.80;99.90
56184;DHT22;42086;53.170;6.980;2022-12-07T14:49:17;4.70;99.90
56184;DHT22;42086;53.170;6.980;2022-12-07T14:51:45;4.70;99.90
56184;DHT22;42086;53.170;6.980;2022-12-07T14:54:17;4.60;99.90
56184;DHT22;42086;53.170;6.980;2022-12-07T14:56:43;4.50;99.90
56184;DHT22;42086;53.170;6.980;2022-12-07T14:59:10;4.40;99.90
56184;DHT22;42086;53.170;6.980;2022-12-07T15:01:37;4.40;99.90
56184;DHT22;42086;53.170;6.980;2022-12-07T15:04:03;4.90;99.90
56184;DHT22;42086;53.170;6.980;2022-12-07T15:06:29;4.20;99.90
56184;DHT22;42086;53.170;6.980;2022-12-07T15:08:55;4.20;99.90
56184;DHT22;42086;53.170;6.980;2022-12-07T15:11:21;4.20;99.90
56184;DHT22;42086;53.170;6.980;2022-12-07T15:13:47;4.20;99.90
56184;DHT22;42086;53.170;6.980;2022-12-07T15:16:32;4.20;99.90
56184;DHT22;42086;53.170;6.980;2022-12-07T15:18:57;4.20;99.90
56184;DHT22;42086;53.170;6.980;2022-12-07T15:21:23;4.20;99.90
56184;DHT22;42086;53.170;6.980;2022-12-07T15:23:50;4.40;99.90
56184;DHT22;42086;53.170;6.980;2022-12-07T15:26:16;4.10;99.90
56184;DHT22;42086;53.170;6.980;2022-12-07T15:28:42;4.10;99.90
56184;DHT22;42086;53.170;6.980;2022-12-07T15:31:12;4.10;99.90
56184;DHT22;42086;53.170;6.980;2022-12-07T15:33:39;4.20;99.90
56184;DHT22;42086;53.170;6.980;2022-12-07T15:36:05;4.20;99.90
56184;DHT22;42086;53.170;6.980;2022-12-07T15:38:31;4.20;99.90
56184;DHT22;42086;53.170;6.980;2022-12-07T15:40:57;4.30;99.90
56184;DHT22;42086;53.170;6.980;2022-12-07T15:43:23;4.30;99.90
56184;DHT22;42086;53.170;6.980;2022-12-07T15:46:07;5.10;99.90
56184;DHT22;42086;53.170;6.980;2022-12-07T15:48:33;4.40;99.90
56184;DHT22;42086;53.170;6.980;2022-12-07T15:51:07;4.40;99.90
56184;DHT22;42086;53.170;6.980;2022-12-07T15:53:34;4.40;99.90
56184;DHT22;42086;53.170;6.980;2022-12-07T15:56:01;4.40;99.90
56184;DHT22;42086;53.170;6.980;2022-12-07T15:58:27;4.40;99.90
56184;DHT22;42086;53.170;6.980;2022-12-07T16:00:53;4.40;99.90
56184;DHT22;42086;53.170;6.980;2022-12-07T16:03:19;4.40;99.90
56184;DHT22;42086;53.170;6.980;2022-12-07T16:05:54;4.40;99.90
56184;DHT22;42086;53.170;6.980;2022-12-07T16:08:20;4.40;99.90
56184;DHT22;42086;53.170;6.980;2022-12-07T16:10:48;4.40;99.90
56184;DHT22;42086;53.170;6.980;2022-12-07T16:13:14;4.40;99.90
56184;DHT22;42086;53.170;6.980;2022-12-07T16:15:41;4.40;99.90
56184;DHT22;42086;53.170;6.980;2022-12-07T16:18:07;4.40;99.90
56184;DHT22;42086;53.170;6.980;2022-12-07T16:20:34;4.40;99.90
56184;DHT22;42086;53.170;6.980;2022-12-07T16:23:00;4.40;99.90
56184;DHT22;42086;53.170;6.980;2022-12-07T16:25:26;4.40;99.90
56184;DHT22;42086;53.170;6.980;2022-12-07T16:27:52;4.30;99.90
56184;DHT22;42086;53.170;6.980;2022-12-07T16:30:18;4.30;99.90
56184;DHT22;42086;53.170;6.980;2022-12-07T16:32:45;4.30;99.90
56184;DHT22;42086;53.170;6.980;2022-12-07T16:35:11;4.60;99.90
56184;DHT22;42086;53.170;6.980;2022-12-07T16:37:37;4.30;99.90
56184;DHT22;42086;53.170;6.980;2022-12-07T16:40:04;4.20;99.90
56184;DHT22;42086;53.170;6.980;2022-12-07T16:42:34;4.20;99.90
56184;DHT22;42086;53.170;6.980;2022-12-07T16:45:01;4.20;99.90
56184;DHT22;42086;53.170;6.980;2022-12-07T16:47:27;4.30;99.90
56184;DHT22;42086;53.170;6.980;2022-12-07T16:49:53;4.30;99.90
56184;DHT22;42086;53.170;6.980;2022-12-07T16:52:19;4.30;99.90
56184;DHT22;42086;53.170;6.980;2022-12-07T16:54:47;4.30;99.90
56184;DHT22;42086;53.170;6.980;2022-12-07T16:57:13;4.30;99.90
56184;DHT22;42086;53.170;6.980;2022-12-07T16:59:39;4.40;99.90
56184;DHT22;42086;53.170;6.980;2022-12-07T17:02:05;4.30;99.90
56184;DHT22;42086;53.170;6.980;2022-12-07T17:04:33;4.30;99.90
56184;DHT22;42086;53.170;6.980;2022-12-07T17:06:59;4.30;99.90
56184;DHT22;42086;53.170;6.980;2022-12-07T17:09:25;4.20;99.90
56184;DHT22;42086;53.170;6.980;2022-12-07T17:11:51;4.20;99.90
56184;DHT22;42086;53.170;6.980;2022-12-07T17:14:17;4.10;99.90
56184;DHT22;42086;53.170;6.980;2022-12-07T17:17:02;4.00;99.90
56184;DHT22;42086;53.170;6.980;2022-12-07T17:19:29;4.00;99.90
56184;DHT22;42086;53.170;6.980;2022-12-07T17:21:55;3.90;99.90
56184;DHT22;42086;53.170;6.980;2022-12-07T17:24:21;3.90;99.90
56184;DHT22;42086;53.170;6.980;2022-12-07T17:26:47;3.90;99.90
56184;DHT22;42086;53.170;6.980;2022-12-07T17:29:15;3.80;99.90
56184;DHT22;42086;53.170;6.980;2022-12-07T17:31:41;3.90;99.90
56184;DHT22;42086;53.170;6.980;2022-12-07T17:34:11;3.90;99.90
56184;DHT22;42086;53.170;6.980;2022-12-07T17:36:37;3.80;99.90
56184;DHT22;42086;53.170;6.980;2022-12-07T17:39:10;3.90;99.90
56184;DHT22;42086;53.170;6.980;2022-12-07T17:41:37;3.90;99.90
56184;DHT22;42086;53.170;6.980;2022-12-07T17:44:22;3.80;99.90
56184;DHT22;42086;53.170;6.980;2022-12-07T17:46:50;3.80;99.90
56184;DHT22;42086;53.170;6.980;2022-12-07T17:49:20;3.80;99.90